createdAt,value
2022-11-26T00:00:19.276Z,101873.84
2022-11-26T00:03:22.009Z,101884.47
2022-11-26T00:06:32.679Z,101882.78
2022-11-26T00:09:35.271Z,101889.97
2022-11-26T00:12:39.285Z,101891.84
2022-11-26T00:15:41.856Z,101894.59
2022-11-26T00:18:44.686Z,101891.97
2022-11-26T00:21:47.322Z,101900.78
2022-11-26T00:24:50.460Z,101902.56
2022-11-26T00:27:56.900Z,101901.78
2022-11-26T00:31:01.998Z,101907.13
2022-11-26T00:34:04.633Z,101918.56
2022-11-26T00:37:10.186Z,101913.34
2022-11-26T00:40:20.730Z,101922.97
2022-11-26T00:43:24.676Z,101920.44
2022-11-26T00:46:27.356Z,101935.41
2022-11-26T00:49:29.991Z,101935.38
2022-11-26T00:52:35.285Z,101942.50
2022-11-26T00:55:40.020Z,101941.59
2022-11-26T00:58:44.042Z,101941.59
2022-11-26T01:01:46.861Z,101948.69
2022-11-26T01:04:49.577Z,101946.03
2022-11-26T01:07:53.474Z,101959.34
2022-11-26T01:10:56.355Z,101968.13
2022-11-26T01:14:00.827Z,101960.34
2022-11-26T01:17:03.521Z,101963.00
2022-11-26T01:20:22.811Z,101984.19
2022-11-26T01:23:27.928Z,101973.69
2022-11-26T01:26:35.423Z,101979.91
2022-11-26T01:29:39.425Z,101979.81
2022-11-26T01:32:42.022Z,101988.72
2022-11-26T01:35:44.697Z,101996.66
2022-11-26T01:38:47.420Z,101986.09
2022-11-26T01:41:57.125Z,102003.75
2022-11-26T01:45:01.127Z,101997.59
2022-11-26T01:48:21.768Z,102003.75
2022-11-26T01:51:28.017Z,102013.53
2022-11-26T01:54:32.116Z,102010.84
2022-11-26T01:57:38.484Z,102015.25
2022-11-26T02:00:43.239Z,102010.00
2022-11-26T02:03:53.892Z,102012.69
2022-11-26T02:06:57.905Z,102021.50
2022-11-26T02:10:00.796Z,102018.06
2022-11-26T02:13:03.674Z,102027.75
2022-11-26T02:16:15.434Z,102031.28
2022-11-26T02:19:56.164Z,102031.28
2022-11-26T02:23:31.464Z,102039.22
2022-11-26T02:27:26.552Z,102041.03
2022-11-26T02:30:35.102Z,102047.19
2022-11-26T02:33:47.063Z,102045.50
2022-11-26T02:36:54.303Z,102053.38
2022-11-26T02:39:58.043Z,102055.16
2022-11-26T02:43:00.716Z,102058.66
2022-11-26T02:46:11.415Z,102059.53
2022-11-26T02:49:20.006Z,102059.50
2022-11-26T02:52:23.525Z,102071.06
2022-11-26T02:55:30.311Z,102072.84
2022-11-26T02:58:34.568Z,102071.16
2022-11-26T03:01:44.849Z,102075.53
2022-11-26T03:04:52.292Z,102081.72
2022-11-26T03:07:56.091Z,102081.72
2022-11-26T03:10:59.035Z,102087.03
2022-11-26T03:14:01.693Z,102089.69
2022-11-26T03:17:05.704Z,102090.59
2022-11-26T03:20:09.630Z,102094.09
2022-11-26T03:23:12.318Z,102104.66
2022-11-26T03:26:14.966Z,102108.19
2022-11-26T03:29:17.631Z,102107.38
2022-11-26T03:32:21.608Z,102112.66
2022-11-26T03:35:24.598Z,102114.47
2022-11-26T03:38:27.344Z,102118.84
2022-11-26T03:41:29.968Z,102112.69
2022-11-26T03:44:32.825Z,102116.25
2022-11-26T03:47:36.914Z,102115.34
2022-11-26T03:50:39.527Z,102122.34
2022-11-26T03:53:42.179Z,102116.22
2022-11-26T03:56:44.792Z,102129.41
2022-11-26T03:59:47.438Z,102126.75
2022-11-26T04:02:51.513Z,102131.13
2022-11-26T04:05:54.254Z,102129.38
2022-11-26T04:08:56.897Z,102138.16
2022-11-26T04:11:59.508Z,102132.03
2022-11-26T04:15:02.189Z,102138.16
2022-11-26T04:18:06.260Z,102144.31
2022-11-26T04:21:09.748Z,102136.41
2022-11-26T04:24:12.393Z,102143.44
2022-11-26T04:27:15.098Z,102145.22
2022-11-26T04:30:17.753Z,102151.44
2022-11-26T04:33:21.771Z,102146.94
2022-11-26T04:36:24.397Z,102148.69
2022-11-26T04:39:27.061Z,102145.09
2022-11-26T04:42:29.716Z,102148.59
2022-11-26T04:45:32.348Z,102149.50
2022-11-26T04:48:36.365Z,102160.00
2022-11-26T04:51:39.022Z,102168.81
2022-11-26T04:54:41.615Z,102174.09
2022-11-26T04:57:44.620Z,102170.59
2022-11-26T05:00:51.006Z,102182.00
2022-11-26T05:03:55.370Z,102183.78
2022-11-26T05:06:58.209Z,102190.00
2022-11-26T05:10:00.878Z,102187.31
2022-11-26T05:13:03.509Z,102190.88
2022-11-26T05:16:06.753Z,102189.13
2022-11-26T05:19:10.772Z,102183.78
2022-11-26T05:22:13.403Z,102192.63
2022-11-26T05:25:16.072Z,102190.78
2022-11-26T05:28:18.758Z,102208.34
2022-11-26T05:31:21.471Z,102208.31
2022-11-26T05:34:25.699Z,102215.31
2022-11-26T05:37:28.424Z,102215.34
2022-11-26T05:40:31.063Z,102219.78
2022-11-26T05:43:33.810Z,102225.13
2022-11-26T05:46:37.107Z,102225.16
2022-11-26T05:49:41.088Z,102231.22
2022-11-26T05:52:43.690Z,102232.94
2022-11-26T05:55:46.329Z,102237.44
2022-11-26T05:58:49.022Z,102236.50
2022-11-26T06:01:51.728Z,102252.53
2022-11-26T06:04:55.771Z,102251.66
2022-11-26T06:07:58.461Z,102241.91
2022-11-26T06:11:01.145Z,102245.38
2022-11-26T06:14:03.793Z,102242.72
2022-11-26T06:17:06.429Z,102262.91
2022-11-26T06:20:11.758Z,102262.91
2022-11-26T06:23:14.465Z,102271.69
2022-11-26T06:26:17.120Z,102270.91
2022-11-26T06:29:24.814Z,102273.47
2022-11-26T06:32:30.451Z,102274.34
2022-11-26T06:35:35.139Z,102269.00
2022-11-26T06:38:37.822Z,102280.53
2022-11-26T06:41:40.561Z,102280.66
2022-11-26T06:44:43.163Z,102285.97
2022-11-26T06:47:47.627Z,102291.28
2022-11-26T06:50:51.982Z,102306.19
2022-11-26T06:53:54.645Z,102300.91
2022-11-26T06:56:57.461Z,102301.78
2022-11-26T07:00:00.080Z,102303.50
2022-11-26T07:03:02.733Z,102311.44
2022-11-26T07:06:07.185Z,102317.59
2022-11-26T07:09:11.461Z,102326.38
2022-11-26T07:12:14.083Z,102323.69
2022-11-26T07:15:16.740Z,102322.84
2022-11-26T07:18:19.408Z,102323.66
2022-11-26T07:21:24.697Z,102331.63
2022-11-26T07:24:27.488Z,102327.19
2022-11-26T07:27:30.140Z,102332.44
2022-11-26T07:30:32.773Z,102343.03
2022-11-26T07:33:35.423Z,102345.69
2022-11-26T07:36:42.959Z,102350.03
2022-11-26T07:39:45.612Z,102348.25
2022-11-26T07:42:51.922Z,102352.69
2022-11-26T07:45:55.963Z,102357.13
2022-11-26T07:48:58.867Z,102362.34
2022-11-26T07:52:02.851Z,102371.13
2022-11-26T07:55:11.020Z,102370.25
2022-11-26T07:58:16.163Z,102361.41
2022-11-26T08:01:21.164Z,102362.28
2022-11-26T08:04:23.830Z,102368.50
2022-11-26T08:07:29.547Z,102374.66
2022-11-26T08:10:32.366Z,102378.16
2022-11-26T08:13:35.009Z,102377.19
2022-11-26T08:16:37.928Z,102384.28
2022-11-26T08:19:40.611Z,102389.59
2022-11-26T08:22:44.575Z,102394.03
2022-11-26T08:26:14.047Z,102395.81
2022-11-26T08:29:09.763Z,102400.25
2022-11-26T08:32:12.425Z,102395.00
2022-11-26T08:35:15.225Z,102396.69
2022-11-26T08:38:19.171Z,102394.97
2022-11-26T08:41:21.835Z,102396.72
2022-11-26T08:44:24.588Z,102399.34
2022-11-26T08:47:27.218Z,102409.91
2022-11-26T08:50:29.929Z,102405.50
2022-11-26T08:53:35.476Z,102407.16
2022-11-26T08:56:38.227Z,102412.47
2022-11-26T08:59:40.844Z,102415.16
2022-11-26T09:02:43.512Z,102416.06
2022-11-26T09:05:46.180Z,102412.47
2022-11-26T09:09:07.366Z,102418.56
2022-11-26T09:12:11.507Z,102421.16
2022-11-26T09:15:14.205Z,102410.59
2022-11-26T09:18:16.893Z,102411.50
2022-11-26T09:21:19.916Z,102408.97
2022-11-26T09:24:23.961Z,102411.63
2022-11-26T09:27:26.595Z,102409.81
2022-11-26T09:30:29.247Z,102406.28
2022-11-26T09:33:32.580Z,102415.09
2022-11-26T09:36:35.268Z,102417.75
2022-11-26T09:39:39.263Z,102422.16
2022-11-26T09:42:53.796Z,102424.72
2022-11-26T09:46:00.778Z,102432.63
2022-11-26T09:49:05.512Z,102445.06
2022-11-26T09:52:10.393Z,102442.34
2022-11-26T09:55:19.786Z,102450.31
2022-11-26T09:58:28.731Z,102452.97
2022-11-26T10:01:34.102Z,102461.81
2022-11-26T10:04:37.534Z,102459.13
2022-11-26T10:07:56.090Z,102459.09
2022-11-26T10:11:09.063Z,102451.13
2022-11-26T10:14:26.364Z,102452.09
2022-11-26T10:17:40.870Z,102463.44
2022-11-26T10:21:01.697Z,102461.75
2022-11-26T10:24:11.140Z,102453.03
2022-11-26T10:27:18.256Z,102456.56
2022-11-26T10:30:24.728Z,102468.84
2022-11-26T10:33:33.617Z,102467.00
2022-11-26T10:36:39.212Z,102475.75
2022-11-26T10:39:41.833Z,102473.03
2022-11-26T10:42:56.502Z,102467.06
2022-11-26T10:45:59.182Z,102463.50
2022-11-26T10:49:22.897Z,102469.56
2022-11-26T10:52:28.403Z,102465.09
2022-11-26T10:55:35.340Z,102479.16
2022-11-26T10:58:44.064Z,102480.91
2022-11-26T11:01:51.719Z,102480.91
2022-11-26T11:04:59.124Z,102487.13
2022-11-26T11:08:01.783Z,102487.03
2022-11-26T11:11:06.047Z,102495.81
2022-11-26T11:14:28.319Z,102489.88
2022-11-26T11:17:34.017Z,102492.47
2022-11-26T11:20:38.592Z,102484.44
2022-11-26T11:24:07.266Z,102479.94
2022-11-26T11:27:03.879Z,102489.63
2022-11-26T11:30:24.382Z,102500.34
2022-11-26T11:33:28.662Z,102490.75
2022-11-26T11:36:31.310Z,102492.44
2022-11-26T11:39:36.261Z,102490.66
2022-11-26T11:42:40.391Z,102492.47
2022-11-26T11:45:53.279Z,102496.81
2022-11-26T11:49:06.935Z,102483.56
2022-11-26T11:52:20.171Z,102496.81
2022-11-26T11:55:31.130Z,102487.97
2022-11-26T11:58:50.832Z,102493.41
2022-11-26T12:02:20.304Z,102498.66
2022-11-26T12:05:37.296Z,102499.56
2022-11-26T12:08:52.572Z,102497.72
2022-11-26T12:12:00.019Z,102498.53
2022-11-26T12:15:09.136Z,102496.69
2022-11-26T12:18:23.991Z,102500.34
2022-11-26T12:21:35.764Z,102489.72
2022-11-26T12:24:42.017Z,102489.78
2022-11-26T12:27:48.871Z,102484.41
2022-11-26T12:30:56.584Z,102485.22
2022-11-26T12:34:08.835Z,102480.72
2022-11-26T12:37:20.326Z,102484.44
2022-11-26T12:40:32.571Z,102470.22
2022-11-26T12:43:51.007Z,102475.53
2022-11-26T12:47:01.520Z,102484.25
2022-11-26T12:50:13.923Z,102470.22
2022-11-26T12:53:25.238Z,102484.41
2022-11-26T12:56:33.972Z,102491.28
2022-11-26T12:59:41.044Z,102472.78
2022-11-26T13:02:47.227Z,102476.34
2022-11-26T13:05:58.666Z,102478.97
2022-11-26T13:09:09.108Z,102471.78
2022-11-26T13:12:23.435Z,102468.13
2022-11-26T13:15:32.805Z,102466.38
2022-11-26T13:18:39.949Z,102471.88
2022-11-26T13:21:57.088Z,102484.22
2022-11-26T13:25:20.001Z,102471.81
2022-11-26T13:28:37.082Z,102474.44
2022-11-26T13:31:57.311Z,102465.59
2022-11-26T13:35:14.535Z,102468.13
2022-11-26T13:38:25.759Z,102462.00
2022-11-26T13:41:53.220Z,102464.75
2022-11-26T13:45:24.745Z,102468.22
2022-11-26T13:48:36.149Z,102479.63
2022-11-26T13:51:45.843Z,102473.59
2022-11-26T13:54:55.147Z,102476.13
2022-11-26T13:58:02.224Z,102467.44
2022-11-26T14:01:26.850Z,102466.41
2022-11-26T14:04:54.575Z,102464.50
2022-11-26T14:08:36.565Z,102469.88
2022-11-26T14:11:57.072Z,102463.78
2022-11-26T14:14:59.755Z,102457.69
2022-11-26T14:18:02.380Z,102456.94
2022-11-26T14:21:14.900Z,102465.78
2022-11-26T14:24:54.360Z,102463.94
2022-11-26T14:27:59.063Z,102468.19
2022-11-26T14:31:08.912Z,102477.91
2022-11-26T14:34:16.594Z,102476.25
2022-11-26T14:37:21.646Z,102483.22
2022-11-26T14:40:26.926Z,102483.28
2022-11-26T14:43:31.165Z,102486.97
2022-11-26T14:46:33.889Z,102492.38
2022-11-26T14:49:39.563Z,102489.69
2022-11-26T14:52:44.215Z,102494.94
2022-11-26T14:55:47.011Z,102493.16
2022-11-26T14:58:53.857Z,102496.75
2022-11-26T15:01:56.519Z,102482.56
2022-11-26T15:05:01.045Z,102493.25
2022-11-26T15:08:07.098Z,102493.16
2022-11-26T15:11:11.513Z,102495.81
2022-11-26T15:14:23.006Z,102494.16
2022-11-26T15:17:28.529Z,102498.47
2022-11-26T15:20:31.255Z,102499.44
2022-11-26T15:23:37.856Z,102503.00
2022-11-26T15:26:40.480Z,102499.38
2022-11-26T15:29:50.879Z,102494.97
2022-11-26T15:33:02.068Z,102493.09
2022-11-26T15:36:06.040Z,102492.16
2022-11-26T15:39:24.101Z,102481.53
2022-11-26T15:42:30.541Z,102478.03
2022-11-26T15:45:41.432Z,102476.28
2022-11-26T15:48:53.391Z,102488.69
2022-11-26T15:52:00.391Z,102495.00
2022-11-26T15:55:15.667Z,102497.63
2022-11-26T15:58:21.900Z,102496.78
2022-11-26T16:01:28.352Z,102500.34
2022-11-26T16:04:45.041Z,102502.03
2022-11-26T16:07:58.135Z,102506.47
2022-11-26T16:11:08.825Z,102506.53
2022-11-26T16:14:29.613Z,102509.25
2022-11-26T16:17:33.868Z,102514.59
2022-11-26T16:20:36.497Z,102525.06
2022-11-26T16:23:39.226Z,102525.00
2022-11-26T16:26:54.857Z,102529.44
2022-11-26T16:29:57.765Z,102531.22
2022-11-26T16:33:01.743Z,102528.63
2022-11-26T16:36:17.698Z,102525.94
2022-11-26T16:39:20.340Z,102518.13
2022-11-26T16:42:24.465Z,102526.00
2022-11-26T16:45:27.050Z,102524.19
2022-11-26T16:48:31.069Z,102518.09
2022-11-26T16:51:33.836Z,102521.53
2022-11-26T16:54:36.465Z,102513.63
2022-11-26T16:57:39.308Z,102515.31
2022-11-26T17:00:42.149Z,102510.88
2022-11-26T17:03:46.442Z,102510.88
2022-11-26T17:06:49.263Z,102511.81
2022-11-26T17:09:52.591Z,102507.34
2022-11-26T17:12:55.278Z,102505.50
2022-11-26T17:15:58.585Z,102509.06
2022-11-26T17:19:02.560Z,102510.75
2022-11-26T17:22:05.391Z,102509.78
2022-11-26T17:25:09.878Z,102510.75
2022-11-26T17:28:13.465Z,102521.41
2022-11-26T17:31:16.198Z,102509.91
2022-11-26T17:34:20.273Z,102511.81
2022-11-26T17:37:25.439Z,102510.03
2022-11-26T17:40:29.536Z,102506.50
2022-11-26T17:43:32.135Z,102509.06
2022-11-26T17:46:48.071Z,102512.66
2022-11-26T17:49:59.056Z,102517.09
2022-11-26T17:53:01.640Z,102512.69
2022-11-26T17:56:04.359Z,102514.50
2022-11-26T17:59:07.039Z,102504.72
2022-11-26T18:02:10.367Z,102509.03
2022-11-26T18:05:15.061Z,102505.56
2022-11-26T18:08:17.697Z,102503.72
2022-11-26T18:11:20.410Z,102500.97
2022-11-26T18:14:23.989Z,102508.88
2022-11-26T18:17:26.913Z,102503.69
2022-11-26T18:20:30.956Z,102500.06
2022-11-26T18:23:33.891Z,102501.03
2022-11-26T18:26:37.399Z,102506.28
2022-11-26T18:29:40.382Z,102515.19
2022-11-26T18:32:43.355Z,102504.69
2022-11-26T18:35:47.293Z,102510.94
2022-11-26T18:38:49.989Z,102517.97
2022-11-26T18:41:54.577Z,102511.75
2022-11-26T18:45:03.520Z,102516.06
2022-11-26T18:48:06.528Z,102519.53
2022-11-26T18:51:11.907Z,102515.16
2022-11-26T18:54:16.567Z,102514.19
2022-11-26T18:57:19.211Z,102496.44
2022-11-26T19:00:22.386Z,102489.41
2022-11-26T19:03:25.911Z,102500.84
2022-11-26T19:06:31.776Z,102492.81
2022-11-26T19:09:34.395Z,102498.34
2022-11-26T19:12:37.092Z,102487.63
2022-11-26T19:15:41.437Z,102495.66
2022-11-26T19:18:45.083Z,102489.41
2022-11-26T19:21:50.200Z,102478.13
2022-11-26T19:24:52.801Z,102480.56
2022-11-26T19:27:55.422Z,102474.28
2022-11-26T19:31:03.297Z,102473.47
2022-11-26T19:34:08.955Z,102473.38
2022-11-26T19:37:12.899Z,102470.72
2022-11-26T19:40:16.129Z,102468.03
2022-11-26T19:43:18.867Z,102468.94
2022-11-26T19:46:23.756Z,102465.44
2022-11-26T19:49:27.619Z,102469.88
2022-11-26T19:52:31.564Z,102471.69
2022-11-26T19:55:34.190Z,102466.34
2022-11-26T19:58:37.847Z,102469.03
2022-11-26T20:01:40.692Z,102468.19
2022-11-26T20:04:43.469Z,102466.44
2022-11-26T20:07:47.466Z,102464.63
2022-11-26T20:10:50.260Z,102462.03
2022-11-26T20:13:53.149Z,102459.41
2022-11-26T20:17:00.737Z,102460.34
2022-11-26T20:20:04.381Z,102468.28
2022-11-26T20:23:08.868Z,102459.50
2022-11-26T20:26:17.029Z,102456.88
2022-11-26T20:29:21.844Z,102455.97
2022-11-26T20:32:24.469Z,102455.13
2022-11-26T20:35:27.070Z,102455.97
2022-11-26T20:38:31.029Z,102454.16
2022-11-26T20:41:34.457Z,102459.44
2022-11-26T20:44:37.097Z,102450.66
2022-11-26T20:47:39.920Z,102455.97
2022-11-26T20:50:42.520Z,102449.81
2022-11-26T20:53:46.889Z,102454.25
2022-11-26T20:56:49.516Z,102459.50
2022-11-26T20:59:52.175Z,102457.75
2022-11-26T21:02:54.814Z,102448.03
2022-11-26T21:06:02.582Z,102449.78
2022-11-26T21:09:07.374Z,102448.91
2022-11-26T21:12:10.010Z,102447.09
2022-11-26T21:15:12.916Z,102459.44
2022-11-26T21:18:16.193Z,102456.84
2022-11-26T21:21:19.336Z,102452.41
2022-11-26T21:24:23.443Z,102462.97
2022-11-26T21:27:26.052Z,102467.38
2022-11-26T21:30:28.700Z,102460.38
2022-11-26T21:33:31.396Z,102458.53
2022-11-26T21:36:35.719Z,102455.00
2022-11-26T21:39:39.932Z,102455.16
2022-11-26T21:42:42.682Z,102459.50
2022-11-26T21:45:45.380Z,102456.78
2022-11-26T21:48:48.067Z,102462.94
2022-11-26T21:51:50.706Z,102464.75
2022-11-26T21:54:56.592Z,102458.50
2022-11-26T21:58:02.720Z,102462.94
2022-11-26T22:01:16.507Z,102456.91
2022-11-26T22:04:20.684Z,102460.34
2022-11-26T22:07:23.370Z,102462.13
2022-11-26T22:10:29.767Z,102453.28
2022-11-26T22:13:35.902Z,102455.97
2022-11-26T22:16:38.594Z,102455.09
2022-11-26T22:19:41.789Z,102452.38
2022-11-26T22:22:44.566Z,102460.31
2022-11-26T22:25:48.536Z,102464.75
2022-11-26T22:28:52.244Z,102469.09
2022-11-26T22:31:54.871Z,102468.19
2022-11-26T22:34:57.480Z,102472.69
2022-11-26T22:38:00.187Z,102474.44
2022-11-26T22:41:05.054Z,102471.78
2022-11-26T22:44:08.273Z,102474.44
2022-11-26T22:47:11.284Z,102480.75
2022-11-26T22:50:14.216Z,102481.81
2022-11-26T22:53:16.958Z,102479.03
2022-11-26T22:56:21.528Z,102461.38
2022-11-26T22:59:24.162Z,102468.47
2022-11-26T23:02:27.610Z,102477.19
2022-11-26T23:05:30.255Z,102483.41
2022-11-26T23:08:32.912Z,102486.03
2022-11-26T23:11:39.722Z,102477.16
2022-11-26T23:14:42.350Z,102478.91
2022-11-26T23:17:44.978Z,102472.72
2022-11-26T23:20:47.786Z,102468.25
2022-11-26T23:23:50.812Z,102452.44
2022-11-26T23:26:55.019Z,102443.56
2022-11-26T23:29:58.321Z,102443.53
2022-11-26T23:33:00.959Z,102435.63
2022-11-26T23:36:03.731Z,102427.69
2022-11-26T23:39:08.325Z,102413.59
2022-11-26T23:42:12.312Z,102394.16
2022-11-26T23:45:14.939Z,102388.97
2022-11-26T23:48:17.991Z,102388.97
2022-11-26T23:51:22.909Z,102385.47
2022-11-26T23:54:25.667Z,102382.03
2022-11-26T23:57:29.631Z,102364.41
